createdAt,value
2022-10-18T00:00:13.739Z,8.97
2022-10-18T00:02:56.944Z,9.70
2022-10-18T00:05:40.542Z,9.80
2022-10-18T00:08:23.586Z,9.43
2022-10-18T00:11:07.172Z,9.70
2022-10-18T00:13:51.546Z,8.93
2022-10-18T00:16:34.551Z,9.87
2022-10-18T00:19:17.793Z,10.47
2022-10-18T00:22:00.757Z,10.00
2022-10-18T00:24:43.817Z,9.53
2022-10-18T00:27:26.806Z,9.50
2022-10-18T00:30:11.911Z,10.27
2022-10-18T00:32:54.905Z,10.40
2022-10-18T00:35:37.906Z,10.13
2022-10-18T00:38:20.911Z,9.30
2022-10-18T00:41:05.090Z,9.97
2022-10-18T00:43:53.352Z,10.37
2022-10-18T00:46:39.633Z,11.00
2022-10-18T00:49:25.002Z,11.07
2022-10-18T00:52:10.638Z,10.83
2022-10-18T00:54:54.930Z,9.27
2022-10-18T00:57:39.489Z,10.10
2022-10-18T01:00:22.812Z,11.20
2022-10-18T01:03:07.852Z,11.37
2022-10-18T01:05:51.134Z,10.83
2022-10-18T01:08:48.082Z,10.63
2022-10-18T01:11:49.664Z,10.47
2022-10-18T01:14:44.163Z,11.80
2022-10-18T01:17:33.252Z,12.83
2022-10-18T01:20:44.922Z,12.27
2022-10-18T01:23:45.098Z,11.57
2022-10-18T01:26:47.681Z,11.40
2022-10-18T01:29:40.257Z,12.37
2022-10-18T01:32:28.238Z,15.50
2022-10-18T01:35:16.494Z,14.43
2022-10-18T01:38:03.733Z,15.50
2022-10-18T01:40:50.591Z,19.37
2022-10-18T01:43:35.622Z,18.37
2022-10-18T01:46:23.549Z,17.53
2022-10-18T01:49:08.446Z,16.60
2022-10-18T01:51:51.450Z,16.77
2022-10-18T01:54:38.579Z,17.63
2022-10-18T01:57:30.054Z,17.07
2022-10-18T02:00:16.133Z,18.00
2022-10-18T02:03:05.488Z,17.23
2022-10-18T02:05:58.157Z,18.27
2022-10-18T02:08:48.241Z,16.43
2022-10-18T02:11:33.602Z,16.30
2022-10-18T02:14:21.455Z,16.67
2022-10-18T02:17:09.191Z,17.13
2022-10-18T02:19:56.915Z,18.63
2022-10-18T02:22:43.722Z,15.00
2022-10-18T02:25:29.926Z,14.63
2022-10-18T02:28:13.007Z,18.17
2022-10-18T02:31:04.512Z,16.30
2022-10-18T02:33:53.623Z,15.40
2022-10-18T02:36:42.234Z,14.30
2022-10-18T02:39:30.521Z,15.63
2022-10-18T02:42:14.821Z,16.43
2022-10-18T02:44:57.814Z,14.30
2022-10-18T02:47:40.853Z,15.97
2022-10-18T02:50:23.844Z,15.43
2022-10-18T02:53:06.894Z,15.03
2022-10-18T02:55:51.274Z,16.03
2022-10-18T02:58:34.232Z,17.30
2022-10-18T03:01:17.274Z,17.03
2022-10-18T03:04:00.353Z,16.10
2022-10-18T03:06:43.386Z,16.20
2022-10-18T03:09:26.567Z,16.40
2022-10-18T03:12:10.930Z,19.60
2022-10-18T03:14:53.923Z,17.27
2022-10-18T03:17:36.975Z,19.43
2022-10-18T03:20:19.974Z,17.63
2022-10-18T03:23:03.406Z,16.37
2022-10-18T03:25:46.845Z,16.97
2022-10-18T03:28:31.368Z,16.20
2022-10-18T03:31:14.446Z,15.80
2022-10-18T03:33:57.451Z,18.57
2022-10-18T03:36:41.426Z,14.67
2022-10-18T03:39:24.497Z,15.30
2022-10-18T03:42:07.448Z,15.87
2022-10-18T03:44:51.852Z,14.73
2022-10-18T03:47:35.022Z,15.73
2022-10-18T03:50:18.220Z,15.87
2022-10-18T03:53:01.220Z,15.83
2022-10-18T03:55:44.355Z,15.03
2022-10-18T03:58:27.484Z,15.40
2022-10-18T04:01:12.151Z,16.57
2022-10-18T04:03:55.204Z,16.53
2022-10-18T04:06:38.248Z,17.17
2022-10-18T04:09:21.465Z,17.67
2022-10-18T04:12:04.478Z,17.43
2022-10-18T04:14:47.484Z,16.93
2022-10-18T04:17:32.104Z,23.07
2022-10-18T04:20:15.531Z,17.10
2022-10-18T04:22:58.594Z,17.53
2022-10-18T04:28:30.847Z,17.37
2022-10-18T04:31:14.049Z,19.33
2022-10-18T04:33:58.451Z,19.77
2022-10-18T04:36:41.450Z,17.33
2022-10-18T04:39:24.480Z,19.03
2022-10-18T04:42:07.543Z,18.53
2022-10-18T04:44:50.550Z,20.13
2022-10-18T04:47:33.835Z,20.13
2022-10-18T04:50:18.646Z,21.80
2022-10-18T04:53:01.654Z,21.00
2022-10-18T04:55:46.697Z,22.03
2022-10-18T04:58:29.747Z,21.83
2022-10-18T05:01:12.941Z,23.13
2022-10-18T05:03:56.155Z,23.53
2022-10-18T05:06:40.592Z,23.90
2022-10-18T05:09:24.876Z,23.27
2022-10-18T05:12:07.863Z,23.80
2022-10-18T05:14:50.854Z,24.47
2022-10-18T05:17:33.876Z,23.30
2022-10-18T05:20:17.020Z,23.90
2022-10-18T05:23:01.411Z,25.33
2022-10-18T05:25:44.709Z,23.00
2022-10-18T05:28:39.576Z,22.60
2022-10-18T05:31:23.293Z,23.63
2022-10-18T05:34:06.336Z,22.77
2022-10-18T05:36:50.151Z,22.00
2022-10-18T05:39:34.530Z,23.73
2022-10-18T05:42:17.500Z,21.53
2022-10-18T05:45:00.473Z,20.17
2022-10-18T05:47:43.426Z,21.00
2022-10-18T05:50:26.429Z,19.33
2022-10-18T05:53:12.446Z,18.27
2022-10-18T05:56:11.882Z,17.93
2022-10-18T05:58:54.963Z,19.77
2022-10-18T06:01:38.071Z,17.97
2022-10-18T06:04:21.170Z,18.87
2022-10-18T06:07:04.657Z,19.50
2022-10-18T06:09:47.657Z,20.73
2022-10-18T06:12:32.032Z,17.27
2022-10-18T06:15:15.143Z,18.63
2022-10-18T06:17:59.593Z,18.43
2022-10-18T06:20:42.666Z,17.70
2022-10-18T06:23:25.668Z,18.43
2022-10-18T06:26:11.596Z,16.93
2022-10-18T06:28:56.071Z,16.50
2022-10-18T06:31:39.082Z,17.30
2022-10-18T06:34:22.179Z,17.67
2022-10-18T06:37:05.215Z,16.40
2022-10-18T06:39:48.189Z,17.50
2022-10-18T06:42:31.883Z,16.97
2022-10-18T06:45:18.355Z,15.07
2022-10-18T06:48:01.359Z,16.30
2022-10-18T06:50:51.507Z,15.33
2022-10-18T06:53:43.806Z,16.00
2022-10-18T06:56:31.869Z,14.83
2022-10-18T06:59:15.316Z,16.63
2022-10-18T07:01:59.759Z,16.03
2022-10-18T07:04:42.769Z,16.97
2022-10-18T07:07:25.877Z,14.97
2022-10-18T07:10:12.937Z,14.90
2022-10-18T07:13:13.676Z,13.77
2022-10-18T07:16:04.423Z,13.53
2022-10-18T07:18:50.765Z,14.97
2022-10-18T07:21:33.762Z,15.60
2022-10-18T07:24:16.959Z,15.70
2022-10-18T07:26:59.930Z,13.13
2022-10-18T07:29:42.905Z,14.50
2022-10-18T07:32:25.877Z,15.47
2022-10-18T07:37:57.474Z,16.73
2022-10-18T07:40:40.474Z,15.93
2022-10-18T07:43:23.441Z,14.60
2022-10-18T07:46:06.991Z,14.80
2022-10-18T07:48:50.396Z,14.40
2022-10-18T07:51:36.112Z,14.10
2022-10-18T07:54:19.292Z,14.63
2022-10-18T07:57:02.424Z,15.07
2022-10-18T07:59:48.056Z,14.53
2022-10-18T08:02:31.058Z,14.03
2022-10-18T08:05:14.116Z,14.13
2022-10-18T08:07:58.542Z,14.13
2022-10-18T08:10:41.520Z,13.40
2022-10-18T08:13:24.511Z,13.17
2022-10-18T08:16:09.444Z,13.03
2022-10-18T08:18:52.752Z,11.60
2022-10-18T08:21:35.707Z,11.27
2022-10-18T08:24:20.060Z,11.40
2022-10-18T08:27:03.300Z,13.00
2022-10-18T08:29:46.338Z,12.83
2022-10-18T08:32:29.592Z,12.67
2022-10-18T08:35:14.811Z,11.10
2022-10-18T08:37:57.827Z,11.63
2022-10-18T08:40:45.576Z,10.83
2022-10-18T08:43:37.317Z,11.03
2022-10-18T08:46:20.396Z,10.53
2022-10-18T08:49:04.783Z,10.93
2022-10-18T08:51:50.510Z,10.60
2022-10-18T08:54:38.855Z,9.60
2022-10-18T08:57:23.571Z,10.60
2022-10-18T09:00:15.929Z,9.93
2022-10-18T09:03:14.245Z,9.07
2022-10-18T09:06:05.737Z,9.55
2022-10-18T09:09:03.213Z,8.63
2022-10-18T09:12:01.069Z,9.95
2022-10-18T09:15:10.100Z,10.07
2022-10-18T09:18:09.042Z,9.77
2022-10-18T09:20:57.715Z,9.90
2022-10-18T09:23:48.445Z,9.70
2022-10-18T09:26:39.093Z,9.53
2022-10-18T09:29:41.369Z,10.47
2022-10-18T09:32:37.463Z,10.20
2022-10-18T09:35:24.957Z,10.10
2022-10-18T09:38:14.341Z,9.77
2022-10-18T09:41:01.299Z,8.23
2022-10-18T09:43:51.814Z,8.40
2022-10-18T09:46:39.921Z,8.13
2022-10-18T09:49:29.482Z,7.50
2022-10-18T09:52:29.355Z,6.80
2022-10-18T09:55:20.243Z,7.37
2022-10-18T09:58:08.665Z,7.60
2022-10-18T10:00:54.010Z,6.60
2022-10-18T10:03:37.111Z,6.83
2022-10-18T10:06:29.332Z,6.60
2022-10-18T10:09:17.840Z,6.10
2022-10-18T10:12:00.884Z,5.93
2022-10-18T10:14:45.455Z,5.80
2022-10-18T10:17:35.985Z,5.60
2022-10-18T10:20:22.440Z,6.05
2022-10-18T10:26:03.950Z,5.10
2022-10-18T10:28:49.099Z,5.55
2022-10-18T10:31:33.048Z,5.68
2022-10-18T10:34:21.853Z,5.53
2022-10-18T10:37:05.611Z,5.45
2022-10-18T10:40:18.363Z,5.72
2022-10-18T10:43:18.465Z,4.90
2022-10-18T10:46:11.961Z,5.00
2022-10-18T10:49:21.007Z,5.10
2022-10-18T10:52:26.829Z,5.30
2022-10-18T10:55:34.928Z,5.07
2022-10-18T10:58:19.512Z,8.65
2022-10-18T11:01:20.305Z,5.50
2022-10-18T11:04:10.764Z,4.90
2022-10-18T11:07:08.121Z,6.13
2022-10-18T11:09:59.622Z,4.32
2022-10-18T11:12:46.323Z,4.50
2022-10-18T11:15:36.453Z,4.40
2022-10-18T11:18:23.769Z,4.20
2022-10-18T11:21:11.521Z,4.55
2022-10-18T11:23:54.927Z,4.75
2022-10-18T11:26:50.005Z,3.92
2022-10-18T11:29:54.358Z,4.50
2022-10-18T11:32:46.927Z,5.00
2022-10-18T11:35:40.543Z,5.37
2022-10-18T11:38:35.941Z,5.63
2022-10-18T11:41:32.253Z,5.87
2022-10-18T11:44:23.795Z,6.30
2022-10-18T11:47:16.616Z,5.90
2022-10-18T11:50:09.672Z,6.57
2022-10-18T11:53:03.558Z,6.00
2022-10-18T11:55:57.999Z,5.80
2022-10-18T11:58:54.706Z,6.27
2022-10-18T12:01:42.341Z,6.97
2022-10-18T12:04:33.732Z,8.43
2022-10-18T12:07:23.386Z,10.07
2022-10-18T12:10:22.962Z,6.20
2022-10-18T12:13:23.055Z,6.87
2022-10-18T12:16:09.235Z,7.17
2022-10-18T12:18:55.937Z,7.90
2022-10-18T12:21:40.629Z,5.80
2022-10-18T12:24:28.751Z,6.40
2022-10-18T12:27:15.930Z,5.83
2022-10-18T12:30:04.805Z,6.00
2022-10-18T12:33:02.220Z,5.63
2022-10-18T12:36:01.617Z,5.97
2022-10-18T12:38:48.856Z,5.97
2022-10-18T12:41:33.990Z,6.17
2022-10-18T12:44:22.352Z,5.83
2022-10-18T12:47:07.582Z,5.80
2022-10-18T12:49:58.392Z,5.83
2022-10-18T12:52:42.146Z,6.20
2022-10-18T12:55:34.907Z,5.97
2022-10-18T12:58:28.417Z,6.43
2022-10-18T13:01:11.489Z,5.93
2022-10-18T13:03:58.687Z,7.30
2022-10-18T13:07:18.153Z,5.90
2022-10-18T13:10:40.539Z,5.90
2022-10-18T13:13:50.700Z,5.53
2022-10-18T13:16:43.461Z,7.97
2022-10-18T13:19:33.095Z,7.93
2022-10-18T13:22:30.595Z,8.03
2022-10-18T13:25:22.641Z,8.00
2022-10-18T13:28:22.761Z,6.27
2022-10-18T13:31:20.392Z,6.37
2022-10-18T13:34:25.205Z,6.50
2022-10-18T13:37:23.861Z,6.90
2022-10-18T13:40:23.855Z,9.10
2022-10-18T13:43:40.074Z,6.17
2022-10-18T13:46:26.075Z,6.97
2022-10-18T13:49:31.874Z,6.07
2022-10-18T13:52:25.960Z,7.57
2022-10-18T13:55:33.255Z,6.60
2022-10-18T13:58:23.539Z,6.90
2022-10-18T14:01:20.357Z,6.70
2022-10-18T14:04:27.832Z,6.10
2022-10-18T14:07:12.976Z,6.07
2022-10-18T14:10:01.814Z,6.90
2022-10-18T14:12:54.733Z,6.00
2022-10-18T14:15:40.802Z,6.00
2022-10-18T14:18:31.821Z,6.07
2022-10-18T14:21:28.759Z,6.30
2022-10-18T14:24:22.512Z,6.07
2022-10-18T14:27:14.039Z,6.80
2022-10-18T14:30:15.997Z,6.07
2022-10-18T14:32:59.648Z,6.00
2022-10-18T14:35:42.745Z,6.40
2022-10-18T14:38:27.307Z,6.67
2022-10-18T14:41:17.136Z,8.57
2022-10-18T14:44:19.438Z,6.53
2022-10-18T14:47:04.493Z,6.70
2022-10-18T14:49:47.774Z,6.57
2022-10-18T14:52:35.693Z,7.93
2022-10-18T14:55:24.654Z,7.13
2022-10-18T14:58:15.591Z,7.10
2022-10-18T15:00:59.708Z,7.40
2022-10-18T15:03:42.856Z,9.90
2022-10-18T15:06:26.410Z,7.60
2022-10-18T15:09:12.464Z,8.13
2022-10-18T15:11:58.053Z,8.93
2022-10-18T15:14:42.353Z,8.60
2022-10-18T15:17:27.491Z,8.97
2022-10-18T15:20:21.964Z,8.30
2022-10-18T15:23:23.293Z,11.77
2022-10-18T15:26:09.229Z,10.37
2022-10-18T15:28:58.703Z,10.57
2022-10-18T15:31:44.565Z,10.20
2022-10-18T15:34:28.566Z,10.30
2022-10-18T15:37:29.524Z,9.80
2022-10-18T15:40:34.817Z,11.83
2022-10-18T15:43:40.046Z,11.27
2022-10-18T15:46:33.505Z,11.57
2022-10-18T15:49:56.793Z,12.43
2022-10-18T15:52:41.707Z,12.10
2022-10-18T15:55:48.606Z,15.50
2022-10-18T15:58:39.175Z,22.23
2022-10-18T16:01:28.214Z,14.57
2022-10-18T16:04:19.748Z,9.93
2022-10-18T16:07:02.866Z,10.63
2022-10-18T16:09:45.898Z,14.23
2022-10-18T16:12:28.935Z,11.10
2022-10-18T16:15:12.114Z,10.83
2022-10-18T16:17:55.098Z,11.33
2022-10-18T16:20:39.569Z,10.10
2022-10-18T16:23:24.334Z,10.23
2022-10-18T16:26:07.294Z,10.13
2022-10-18T16:28:50.999Z,10.47
2022-10-18T16:31:35.487Z,10.67
2022-10-18T16:34:18.634Z,10.30
2022-10-18T16:37:03.058Z,11.17
2022-10-18T16:39:46.062Z,12.03
2022-10-18T16:42:29.100Z,11.27
2022-10-18T16:45:12.118Z,13.53
2022-10-18T16:47:55.125Z,12.50
2022-10-18T16:50:38.130Z,13.60
2022-10-18T16:53:24.123Z,12.23
2022-10-18T16:56:12.946Z,10.93
2022-10-18T16:58:56.773Z,10.90
2022-10-18T17:01:39.822Z,10.77
2022-10-18T17:04:22.852Z,11.47
2022-10-18T17:07:06.053Z,12.50
2022-10-18T17:09:50.474Z,12.77
2022-10-18T17:12:33.754Z,11.40
2022-10-18T17:15:16.950Z,11.70
2022-10-18T17:18:01.182Z,10.43
2022-10-18T17:20:45.086Z,10.87
2022-10-18T17:23:28.099Z,8.90
2022-10-18T17:26:28.381Z,10.50
2022-10-18T17:29:12.300Z,9.40
2022-10-18T17:31:55.426Z,10.67
2022-10-18T17:34:38.620Z,10.23
2022-10-18T17:37:21.776Z,10.57
2022-10-18T17:40:05.424Z,10.20
2022-10-18T17:42:49.825Z,10.40
2022-10-18T17:45:32.864Z,10.03
2022-10-18T17:48:15.905Z,9.50
2022-10-18T17:50:59.227Z,9.10
2022-10-18T17:53:42.219Z,9.03
2022-10-18T17:56:27.194Z,9.30
2022-10-18T17:59:11.547Z,9.73
2022-10-18T18:01:54.566Z,10.67
2022-10-18T18:04:37.618Z,9.77
2022-10-18T18:07:20.648Z,9.77
2022-10-18T18:10:03.709Z,9.80
2022-10-18T18:12:46.861Z,9.30
2022-10-18T18:15:31.342Z,9.80
2022-10-18T18:18:14.354Z,9.60
2022-10-18T18:20:57.404Z,8.60
2022-10-18T18:23:40.631Z,8.73
2022-10-18T18:26:23.962Z,8.63
2022-10-18T18:29:07.030Z,8.43
2022-10-18T18:31:51.914Z,10.93
2022-10-18T18:34:36.680Z,9.93
2022-10-18T18:37:19.741Z,9.33
2022-10-18T18:40:02.744Z,10.53
2022-10-18T18:42:56.781Z,10.40
2022-10-18T18:45:52.740Z,9.37
2022-10-18T18:48:38.175Z,11.77
2022-10-18T18:51:24.462Z,10.00
2022-10-18T18:54:08.334Z,9.80
2022-10-18T18:56:51.357Z,11.67
2022-10-18T18:59:34.426Z,14.17
2022-10-18T19:02:17.427Z,11.77
2022-10-18T19:05:01.831Z,11.17
2022-10-18T19:07:44.806Z,11.30
2022-10-18T19:10:28.116Z,10.63
2022-10-18T19:13:11.970Z,10.30
2022-10-18T19:16:12.143Z,12.10
2022-10-18T19:18:59.936Z,12.07
2022-10-18T19:21:46.189Z,12.83
2022-10-18T19:24:31.093Z,13.67
2022-10-18T19:27:14.119Z,13.10
2022-10-18T19:29:57.086Z,13.77
2022-10-18T19:32:40.166Z,13.90
2022-10-18T19:35:23.219Z,13.57
2022-10-18T19:38:07.993Z,14.77
2022-10-18T19:40:53.754Z,16.53
2022-10-18T19:43:37.274Z,14.93
2022-10-18T19:46:20.335Z,16.43
2022-10-18T19:49:03.409Z,16.23
2022-10-18T19:51:46.849Z,15.63
2022-10-18T19:54:31.224Z,16.80
2022-10-18T19:57:14.261Z,16.77
2022-10-18T19:59:57.825Z,15.77
2022-10-18T20:02:41.389Z,15.97
2022-10-18T20:05:24.494Z,13.57
2022-10-18T20:08:07.543Z,16.83
2022-10-18T20:10:52.301Z,19.37
2022-10-18T20:13:36.031Z,14.83
2022-10-18T20:16:25.513Z,12.97
2022-10-18T20:19:11.934Z,15.27
2022-10-18T20:21:57.698Z,15.10
2022-10-18T20:24:40.700Z,14.83
2022-10-18T20:27:25.109Z,15.37
2022-10-18T20:30:11.260Z,14.00
2022-10-18T20:32:54.931Z,15.33
2022-10-18T20:35:37.965Z,13.60
2022-10-18T20:38:21.013Z,12.10
2022-10-18T20:41:06.057Z,11.63
2022-10-18T20:43:53.681Z,11.03
2022-10-18T20:46:38.219Z,9.40
2022-10-18T20:49:21.267Z,9.03
2022-10-18T20:52:04.338Z,9.33
2022-10-18T20:54:47.348Z,7.70
2022-10-18T20:57:34.194Z,8.67
2022-10-18T21:00:21.038Z,9.00
2022-10-18T21:03:04.600Z,9.20
2022-10-18T21:05:47.626Z,9.07
2022-10-18T21:08:30.725Z,9.30
2022-10-18T21:11:14.738Z,8.50
2022-10-18T21:14:00.292Z,9.13
2022-10-18T21:16:44.934Z,9.90
2022-10-18T21:19:28.235Z,9.23
2022-10-18T21:22:11.222Z,9.23
2022-10-18T21:24:54.171Z,9.67
2022-10-18T21:27:37.316Z,11.20
2022-10-18T21:30:20.278Z,8.87
2022-10-18T21:33:07.064Z,10.13
2022-10-18T21:35:50.036Z,9.80
2022-10-18T21:38:33.034Z,10.53
2022-10-18T21:41:17.910Z,10.80
2022-10-18T21:44:03.484Z,10.00
2022-10-18T21:46:48.580Z,9.93
2022-10-18T21:49:35.240Z,10.83
2022-10-18T21:52:18.234Z,10.50
2022-10-18T21:55:01.232Z,9.30
2022-10-18T21:57:44.239Z,10.23
2022-10-18T22:00:27.233Z,9.43
2022-10-18T22:03:10.729Z,9.67
2022-10-18T22:06:01.333Z,10.00
2022-10-18T22:08:46.563Z,9.30
2022-10-18T22:11:31.733Z,10.27
2022-10-18T22:14:14.947Z,10.73
2022-10-18T22:16:57.926Z,11.23
2022-10-18T22:19:40.921Z,10.03
2022-10-18T22:22:25.382Z,12.33
2022-10-18T22:25:09.202Z,11.73
2022-10-18T22:27:52.222Z,10.27
2022-10-18T22:30:38.063Z,10.80
2022-10-18T22:33:21.094Z,11.93
2022-10-18T22:36:04.134Z,11.50
2022-10-18T22:38:48.486Z,11.23
2022-10-18T22:41:31.475Z,12.40
2022-10-18T22:44:16.082Z,11.67
2022-10-18T22:46:59.104Z,11.80
2022-10-18T22:49:42.124Z,12.97
2022-10-18T22:52:25.130Z,12.43
2022-10-18T22:55:10.028Z,12.13
2022-10-18T22:57:53.084Z,13.27
2022-10-18T23:03:24.079Z,13.20
2022-10-18T23:06:19.753Z,13.20
2022-10-18T23:09:05.515Z,13.67
2022-10-18T23:11:51.170Z,12.20
2022-10-18T23:14:34.142Z,12.07
2022-10-18T23:17:17.228Z,13.03
2022-10-18T23:20:00.287Z,12.80
2022-10-18T23:22:43.361Z,12.53
2022-10-18T23:25:27.236Z,13.70
2022-10-18T23:28:11.675Z,13.27
2022-10-18T23:30:54.650Z,12.33
2022-10-18T23:33:37.977Z,13.57
2022-10-18T23:36:21.590Z,13.60
2022-10-18T23:39:06.282Z,13.70
2022-10-18T23:41:49.270Z,13.10
2022-10-18T23:44:33.676Z,14.10
2022-10-18T23:47:17.138Z,13.33
2022-10-18T23:50:00.135Z,13.30
2022-10-18T23:52:43.163Z,15.03
2022-10-18T23:55:26.311Z,15.30
2022-10-18T23:58:09.324Z,13.97
